sensor_id;sensor_type;location;lat;lon;timestamp;temperature;humidity
8332;DHT22;4203;48.144;14.118;2022-09-09T00:01:03;10.40;99.90
8332;DHT22;4203;48.144;14.118;2022-09-09T00:03:40;10.40;99.90
8332;DHT22;4203;48.144;14.118;2022-09-09T00:06:16;10.40;99.90
8332;DHT22;4203;48.144;14.118;2022-09-09T00:08:56;10.40;99.90
8332;DHT22;4203;48.144;14.118;2022-09-09T00:11:30;10.30;99.90
8332;DHT22;4203;48.144;14.118;2022-09-09T00:14:00;10.40;99.90
8332;DHT22;4203;48.144;14.118;2022-09-09T00:16:36;10.40;99.90
8332;DHT22;4203;48.144;14.118;2022-09-09T00:19:12;10.40;99.90
8332;DHT22;4203;48.144;14.118;2022-09-09T00:21:47;10.40;99.90
8332;DHT22;4203;48.144;14.118;2022-09-09T00:24:26;10.40;99.90
8332;DHT22;4203;48.144;14.118;2022-09-09T00:27:00;10.40;99.90
8332;DHT22;4203;48.144;14.118;2022-09-09T00:29:33;10.40;99.90
8332;DHT22;4203;48.144;14.118;2022-09-09T00:32:12;10.30;99.90
8332;DHT22;4203;48.144;14.118;2022-09-09T00:34:47;10.30;99.90
8332;DHT22;4203;48.144;14.118;2022-09-09T00:37:15;10.30;99.90
8332;DHT22;4203;48.144;14.118;2022-09-09T00:39:46;10.30;99.90
8332;DHT22;4203;48.144;14.118;2022-09-09T00:42:16;10.30;99.90
8332;DHT22;4203;48.144;14.118;2022-09-09T00:44:53;10.30;99.90
8332;DHT22;4203;48.144;14.118;2022-09-09T00:47:45;10.20;99.90
8332;DHT22;4203;48.144;14.118;2022-09-09T00:50:39;10.20;99.90
8332;DHT22;4203;48.144;14.118;2022-09-09T00:53:24;10.10;99.90
8332;DHT22;4203;48.144;14.118;2022-09-09T00:56:04;10.20;99.90
8332;DHT22;4203;48.144;14.118;2022-09-09T00:58:35;10.20;99.90
8332;DHT22;4203;48.144;14.118;2022-09-09T01:01:05;10.10;99.90
8332;DHT22;4203;48.144;14.118;2022-09-09T01:03:38;10.00;99.90
8332;DHT22;4203;48.144;14.118;2022-09-09T01:06:16;10.10;99.90
8332;DHT22;4203;48.144;14.118;2022-09-09T01:09:10;10.10;99.90
8332;DHT22;4203;48.144;14.118;2022-09-09T01:11:49;10.20;99.90
8332;DHT22;4203;48.144;14.118;2022-09-09T01:14:29;10.20;99.90
8332;DHT22;4203;48.144;14.118;2022-09-09T01:17:00;10.20;99.90
8332;DHT22;4203;48.144;14.118;2022-09-09T01:19:40;10.10;99.90
8332;DHT22;4203;48.144;14.118;2022-09-09T01:22:16;10.10;99.90
8332;DHT22;4203;48.144;14.118;2022-09-09T01:25:09;10.10;99.90
8332;DHT22;4203;48.144;14.118;2022-09-09T01:27:43;10.10;99.90
8332;DHT22;4203;48.144;14.118;2022-09-09T01:30:14;10.20;99.90
8332;DHT22;4203;48.144;14.118;2022-09-09T01:32:44;10.10;99.90
8332;DHT22;4203;48.144;14.118;2022-09-09T01:35:22;10.20;99.90
8332;DHT22;4203;48.144;14.118;2022-09-09T01:37:54;10.10;99.90
8332;DHT22;4203;48.144;14.118;2022-09-09T01:40:22;10.10;99.90
8332;DHT22;4203;48.144;14.118;2022-09-09T01:42:51;10.10;99.90
8332;DHT22;4203;48.144;14.118;2022-09-09T01:45:19;10.10;99.90
8332;DHT22;4203;48.144;14.118;2022-09-09T01:47:46;10.00;99.90
8332;DHT22;4203;48.144;14.118;2022-09-09T01:50:15;10.00;99.90
8332;DHT22;4203;48.144;14.118;2022-09-09T01:52:44;10.00;99.90
8332;DHT22;4203;48.144;14.118;2022-09-09T01:55:12;10.00;99.90
8332;DHT22;4203;48.144;14.118;2022-09-09T01:57:46;10.00;99.90
8332;DHT22;4203;48.144;14.118;2022-09-09T02:00:16;10.00;99.90
8332;DHT22;4203;48.144;14.118;2022-09-09T02:02:51;10.00;99.90
8332;DHT22;4203;48.144;14.118;2022-09-09T02:05:30;10.00;99.90
8332;DHT22;4203;48.144;14.118;2022-09-09T02:08:05;10.00;99.90
8332;DHT22;4203;48.144;14.118;2022-09-09T02:10:37;10.00;99.90
8332;DHT22;4203;48.144;14.118;2022-09-09T02:13:10;10.00;99.90
8332;DHT22;4203;48.144;14.118;2022-09-09T02:15:43;10.10;99.90
8332;DHT22;4203;48.144;14.118;2022-09-09T02:18:13;10.20;99.90
8332;DHT22;4203;48.144;14.118;2022-09-09T02:20:43;10.20;99.90
8332;DHT22;4203;48.144;14.118;2022-09-09T02:23:11;10.30;99.90
8332;DHT22;4203;48.144;14.118;2022-09-09T02:25:40;10.40;99.90
8332;DHT22;4203;48.144;14.118;2022-09-09T02:28:09;10.40;99.90
8332;DHT22;4203;48.144;14.118;2022-09-09T02:30:41;10.40;99.90
8332;DHT22;4203;48.144;14.118;2022-09-09T02:33:14;10.50;99.90
8332;DHT22;4203;48.144;14.118;2022-09-09T02:35:42;10.50;99.90
8332;DHT22;4203;48.144;14.118;2022-09-09T02:38:13;10.50;99.90
8332;DHT22;4203;48.144;14.118;2022-09-09T02:40:42;10.50;99.90
8332;DHT22;4203;48.144;14.118;2022-09-09T02:43:09;10.60;99.90
8332;DHT22;4203;48.144;14.118;2022-09-09T02:45:41;10.60;99.90
8332;DHT22;4203;48.144;14.118;2022-09-09T02:48:14;10.70;99.90
8332;DHT22;4203;48.144;14.118;2022-09-09T02:50:50;10.70;99.90
8332;DHT22;4203;48.144;14.118;2022-09-09T02:53:26;10.70;99.90
8332;DHT22;4203;48.144;14.118;2022-09-09T02:55:58;10.70;99.90
8332;DHT22;4203;48.144;14.118;2022-09-09T02:58:26;10.80;99.90
8332;DHT22;4203;48.144;14.118;2022-09-09T03:00:55;10.70;99.90
8332;DHT22;4203;48.144;14.118;2022-09-09T03:03:23;10.60;99.90
8332;DHT22;4203;48.144;14.118;2022-09-09T03:05:51;10.50;99.90
8332;DHT22;4203;48.144;14.118;2022-09-09T03:08:18;10.50;99.90
8332;DHT22;4203;48.144;14.118;2022-09-09T03:10:45;10.50;99.90
8332;DHT22;4203;48.144;14.118;2022-09-09T03:13:13;10.40;99.90
8332;DHT22;4203;48.144;14.118;2022-09-09T03:15:40;10.40;99.90
8332;DHT22;4203;48.144;14.118;2022-09-09T03:18:09;10.40;99.90
8332;DHT22;4203;48.144;14.118;2022-09-09T03:20:36;10.50;99.90
8332;DHT22;4203;48.144;14.118;2022-09-09T03:23:03;10.50;99.90
8332;DHT22;4203;48.144;14.118;2022-09-09T03:25:30;10.50;99.90
8332;DHT22;4203;48.144;14.118;2022-09-09T03:27:59;10.50;99.90
8332;DHT22;4203;48.144;14.118;2022-09-09T03:30:27;10.50;99.90
8332;DHT22;4203;48.144;14.118;2022-09-09T03:32:54;10.50;99.90
8332;DHT22;4203;48.144;14.118;2022-09-09T03:35:23;10.40;99.90
8332;DHT22;4203;48.144;14.118;2022-09-09T03:37:51;10.40;99.90
8332;DHT22;4203;48.144;14.118;2022-09-09T03:40:18;10.40;99.90
8332;DHT22;4203;48.144;14.118;2022-09-09T03:42:45;10.40;99.90
8332;DHT22;4203;48.144;14.118;2022-09-09T03:45:13;10.30;99.90
8332;DHT22;4203;48.144;14.118;2022-09-09T03:47:41;10.30;99.90
8332;DHT22;4203;48.144;14.118;2022-09-09T03:50:09;10.30;99.90
8332;DHT22;4203;48.144;14.118;2022-09-09T03:52:40;10.30;99.90
8332;DHT22;4203;48.144;14.118;2022-09-09T03:55:08;10.30;99.90
8332;DHT22;4203;48.144;14.118;2022-09-09T03:57:35;10.30;99.90
8332;DHT22;4203;48.144;14.118;2022-09-09T04:00:03;10.30;99.90
8332;DHT22;4203;48.144;14.118;2022-09-09T04:02:31;10.30;99.90
8332;DHT22;4203;48.144;14.118;2022-09-09T04:04:58;10.30;99.90
8332;DHT22;4203;48.144;14.118;2022-09-09T04:07:25;10.30;99.90
8332;DHT22;4203;48.144;14.118;2022-09-09T04:09:54;10.30;99.90
8332;DHT22;4203;48.144;14.118;2022-09-09T04:12:21;10.30;99.90
8332;DHT22;4203;48.144;14.118;2022-09-09T04:14:49;10.30;99.90
8332;DHT22;4203;48.144;14.118;2022-09-09T04:17:16;10.20;99.90
8332;DHT22;4203;48.144;14.118;2022-09-09T04:19:44;10.20;99.90
8332;DHT22;4203;48.144;14.118;2022-09-09T04:22:11;10.20;99.90
8332;DHT22;4203;48.144;14.118;2022-09-09T04:24:38;10.20;99.90
8332;DHT22;4203;48.144;14.118;2022-09-09T04:27:06;10.10;99.90
8332;DHT22;4203;48.144;14.118;2022-09-09T04:29:33;10.10;99.90
8332;DHT22;4203;48.144;14.118;2022-09-09T04:32:01;10.10;99.90
8332;DHT22;4203;48.144;14.118;2022-09-09T04:34:28;10.10;99.90
8332;DHT22;4203;48.144;14.118;2022-09-09T04:36:56;10.20;99.90
8332;DHT22;4203;48.144;14.118;2022-09-09T04:39:23;10.20;99.90
8332;DHT22;4203;48.144;14.118;2022-09-09T04:41:50;10.20;99.90
8332;DHT22;4203;48.144;14.118;2022-09-09T04:44:19;10.30;99.90
8332;DHT22;4203;48.144;14.118;2022-09-09T04:46:46;10.30;99.90
8332;DHT22;4203;48.144;14.118;2022-09-09T04:49:13;10.40;99.90
8332;DHT22;4203;48.144;14.118;2022-09-09T04:51:40;10.40;99.90
8332;DHT22;4203;48.144;14.118;2022-09-09T04:54:08;10.50;99.90
8332;DHT22;4203;48.144;14.118;2022-09-09T04:56:36;10.50;99.90
8332;DHT22;4203;48.144;14.118;2022-09-09T04:59:03;10.60;99.90
8332;DHT22;4203;48.144;14.118;2022-09-09T05:01:32;10.60;99.90
8332;DHT22;4203;48.144;14.118;2022-09-09T05:03:59;10.60;99.90
8332;DHT22;4203;48.144;14.118;2022-09-09T05:06:27;10.70;99.90
8332;DHT22;4203;48.144;14.118;2022-09-09T05:08:57;10.80;99.90
8332;DHT22;4203;48.144;14.118;2022-09-09T05:11:26;10.80;99.90
8332;DHT22;4203;48.144;14.118;2022-09-09T05:13:53;10.90;99.90
8332;DHT22;4203;48.144;14.118;2022-09-09T05:16:22;10.90;99.90
8332;DHT22;4203;48.144;14.118;2022-09-09T05:18:51;11.00;99.90
8332;DHT22;4203;48.144;14.118;2022-09-09T05:21:19;11.10;99.90
8332;DHT22;4203;48.144;14.118;2022-09-09T05:23:47;11.10;99.90
8332;DHT22;4203;48.144;14.118;2022-09-09T05:26:16;11.20;99.90
8332;DHT22;4203;48.144;14.118;2022-09-09T05:28:43;11.30;99.90
8332;DHT22;4203;48.144;14.118;2022-09-09T05:31:11;11.40;99.90
8332;DHT22;4203;48.144;14.118;2022-09-09T05:33:40;11.40;99.90
8332;DHT22;4203;48.144;14.118;2022-09-09T05:36:11;11.50;99.90
8332;DHT22;4203;48.144;14.118;2022-09-09T05:38:40;11.60;99.90
8332;DHT22;4203;48.144;14.118;2022-09-09T05:41:08;11.70;99.90
8332;DHT22;4203;48.144;14.118;2022-09-09T05:43:36;11.80;99.90
8332;DHT22;4203;48.144;14.118;2022-09-09T05:46:05;11.90;99.90
8332;DHT22;4203;48.144;14.118;2022-09-09T05:48:35;12.00;99.90
8332;DHT22;4203;48.144;14.118;2022-09-09T05:51:04;12.00;99.90
8332;DHT22;4203;48.144;14.118;2022-09-09T05:53:33;12.20;99.90
8332;DHT22;4203;48.144;14.118;2022-09-09T05:56:02;12.30;99.90
8332;DHT22;4203;48.144;14.118;2022-09-09T05:58:30;12.40;99.90
8332;DHT22;4203;48.144;14.118;2022-09-09T06:01:02;12.50;99.90
8332;DHT22;4203;48.144;14.118;2022-09-09T06:03:29;12.50;99.90
8332;DHT22;4203;48.144;14.118;2022-09-09T06:05:58;12.50;99.90
8332;DHT22;4203;48.144;14.118;2022-09-09T06:08:26;12.50;99.90
8332;DHT22;4203;48.144;14.118;2022-09-09T06:11:01;12.60;99.90
8332;DHT22;4203;48.144;14.118;2022-09-09T06:13:29;12.70;99.90
8332;DHT22;4203;48.144;14.118;2022-09-09T06:15:57;12.80;99.90
8332;DHT22;4203;48.144;14.118;2022-09-09T06:18:25;12.90;99.90
8332;DHT22;4203;48.144;14.118;2022-09-09T06:20:56;13.00;99.90
8332;DHT22;4203;48.144;14.118;2022-09-09T06:23:24;13.20;99.90
8332;DHT22;4203;48.144;14.118;2022-09-09T06:25:52;13.30;99.90
8332;DHT22;4203;48.144;14.118;2022-09-09T06:28:28;13.40;99.90
8332;DHT22;4203;48.144;14.118;2022-09-09T06:30:58;13.50;99.90
8332;DHT22;4203;48.144;14.118;2022-09-09T06:33:30;13.60;99.90
8332;DHT22;4203;48.144;14.118;2022-09-09T06:35:58;13.70;99.90
8332;DHT22;4203;48.144;14.118;2022-09-09T06:38:25;13.80;99.90
8332;DHT22;4203;48.144;14.118;2022-09-09T06:40:53;13.90;99.90
8332;DHT22;4203;48.144;14.118;2022-09-09T06:43:21;14.00;99.90
8332;DHT22;4203;48.144;14.118;2022-09-09T06:45:58;13.90;99.90
8332;DHT22;4203;48.144;14.118;2022-09-09T06:48:25;13.90;99.90
8332;DHT22;4203;48.144;14.118;2022-09-09T06:51:00;13.90;99.90
8332;DHT22;4203;48.144;14.118;2022-09-09T06:53:28;14.00;99.90
8332;DHT22;4203;48.144;14.118;2022-09-09T06:55:55;14.00;99.90
8332;DHT22;4203;48.144;14.118;2022-09-09T06:58:23;14.00;99.90
8332;DHT22;4203;48.144;14.118;2022-09-09T07:00:50;14.10;99.90
8332;DHT22;4203;48.144;14.118;2022-09-09T07:03:18;14.20;99.90
8332;DHT22;4203;48.144;14.118;2022-09-09T07:05:54;14.30;99.90
8332;DHT22;4203;48.144;14.118;2022-09-09T07:08:22;14.40;99.90
8332;DHT22;4203;48.144;14.118;2022-09-09T07:10:50;14.60;99.90
8332;DHT22;4203;48.144;14.118;2022-09-09T07:13:20;14.70;99.90
8332;DHT22;4203;48.144;14.118;2022-09-09T07:15:50;14.90;99.90
8332;DHT22;4203;48.144;14.118;2022-09-09T07:18:19;15.00;99.90
8332;DHT22;4203;48.144;14.118;2022-09-09T07:20:53;15.10;99.90
8332;DHT22;4203;48.144;14.118;2022-09-09T07:23:21;15.20;99.90
8332;DHT22;4203;48.144;14.118;2022-09-09T07:25:49;15.30;99.90
8332;DHT22;4203;48.144;14.118;2022-09-09T07:28:16;15.40;99.90
8332;DHT22;4203;48.144;14.118;2022-09-09T07:30:43;15.50;99.90
8332;DHT22;4203;48.144;14.118;2022-09-09T07:33:10;15.50;99.90
8332;DHT22;4203;48.144;14.118;2022-09-09T07:35:39;15.60;99.90
8332;DHT22;4203;48.144;14.118;2022-09-09T07:38:08;15.60;99.90
8332;DHT22;4203;48.144;14.118;2022-09-09T07:40:35;15.60;99.90
8332;DHT22;4203;48.144;14.118;2022-09-09T07:43:02;15.50;99.90
8332;DHT22;4203;48.144;14.118;2022-09-09T07:45:30;15.50;99.90
8332;DHT22;4203;48.144;14.118;2022-09-09T07:47:58;15.60;99.90
8332;DHT22;4203;48.144;14.118;2022-09-09T07:50:25;15.60;99.90
8332;DHT22;4203;48.144;14.118;2022-09-09T07:52:54;15.60;99.90
8332;DHT22;4203;48.144;14.118;2022-09-09T07:55:21;15.60;99.90
8332;DHT22;4203;48.144;14.118;2022-09-09T07:57:50;15.60;99.90
8332;DHT22;4203;48.144;14.118;2022-09-09T08:00:18;15.60;99.90
8332;DHT22;4203;48.144;14.118;2022-09-09T08:02:47;15.60;99.90
8332;DHT22;4203;48.144;14.118;2022-09-09T08:05:14;15.50;99.90
8332;DHT22;4203;48.144;14.118;2022-09-09T08:07:42;15.50;99.90
8332;DHT22;4203;48.144;14.118;2022-09-09T08:10:11;15.50;99.90
8332;DHT22;4203;48.144;14.118;2022-09-09T08:12:40;15.50;99.90
8332;DHT22;4203;48.144;14.118;2022-09-09T08:15:08;15.40;99.90
8332;DHT22;4203;48.144;14.118;2022-09-09T08:17:35;15.50;99.90
8332;DHT22;4203;48.144;14.118;2022-09-09T08:20:04;15.40;99.90
8332;DHT22;4203;48.144;14.118;2022-09-09T08:22:31;15.50;99.90
8332;DHT22;4203;48.144;14.118;2022-09-09T08:24:58;15.40;99.90
8332;DHT22;4203;48.144;14.118;2022-09-09T08:27:27;15.40;99.90
8332;DHT22;4203;48.144;14.118;2022-09-09T08:29:54;15.40;99.90
8332;DHT22;4203;48.144;14.118;2022-09-09T08:32:22;15.50;99.90
8332;DHT22;4203;48.144;14.118;2022-09-09T08:34:49;15.40;99.90
8332;DHT22;4203;48.144;14.118;2022-09-09T08:37:16;15.40;99.90
8332;DHT22;4203;48.144;14.118;2022-09-09T08:39:45;15.50;99.90
8332;DHT22;4203;48.144;14.118;2022-09-09T08:42:28;15.60;99.90
8332;DHT22;4203;48.144;14.118;2022-09-09T08:45:11;15.60;99.90
8332;DHT22;4203;48.144;14.118;2022-09-09T08:47:47;15.70;99.90
8332;DHT22;4203;48.144;14.118;2022-09-09T08:50:21;15.80;99.90
8332;DHT22;4203;48.144;14.118;2022-09-09T08:52:54;15.80;99.90
8332;DHT22;4203;48.144;14.118;2022-09-09T08:55:33;15.90;99.90
8332;DHT22;4203;48.144;14.118;2022-09-09T08:58:09;16.00;99.90
8332;DHT22;4203;48.144;14.118;2022-09-09T09:00:49;16.00;99.90
8332;DHT22;4203;48.144;14.118;2022-09-09T09:03:24;16.10;99.90
8332;DHT22;4203;48.144;14.118;2022-09-09T09:06:01;16.00;99.90
8332;DHT22;4203;48.144;14.118;2022-09-09T09:08:38;16.00;99.90
8332;DHT22;4203;48.144;14.118;2022-09-09T09:11:07;15.90;99.90
8332;DHT22;4203;48.144;14.118;2022-09-09T09:13:45;15.90;99.90
8332;DHT22;4203;48.144;14.118;2022-09-09T09:16:21;15.90;99.90
8332;DHT22;4203;48.144;14.118;2022-09-09T09:18:50;15.90;99.90
8332;DHT22;4203;48.144;14.118;2022-09-09T09:21:21;15.90;99.90
8332;DHT22;4203;48.144;14.118;2022-09-09T09:23:55;15.90;99.90
8332;DHT22;4203;48.144;14.118;2022-09-09T09:26:25;16.00;99.90
8332;DHT22;4203;48.144;14.118;2022-09-09T09:28:56;16.00;99.90
8332;DHT22;4203;48.144;14.118;2022-09-09T09:31:25;16.00;99.90
8332;DHT22;4203;48.144;14.118;2022-09-09T09:33:54;16.00;99.90
8332;DHT22;4203;48.144;14.118;2022-09-09T09:36:24;16.00;99.90
8332;DHT22;4203;48.144;14.118;2022-09-09T09:38:54;15.90;99.90
8332;DHT22;4203;48.144;14.118;2022-09-09T09:41:33;15.90;99.90
8332;DHT22;4203;48.144;14.118;2022-09-09T09:44:04;15.90;99.90
8332;DHT22;4203;48.144;14.118;2022-09-09T09:46:31;15.90;99.90
8332;DHT22;4203;48.144;14.118;2022-09-09T09:49:01;15.90;99.90
8332;DHT22;4203;48.144;14.118;2022-09-09T09:51:29;15.90;99.90
8332;DHT22;4203;48.144;14.118;2022-09-09T09:54:09;15.80;99.90
8332;DHT22;4203;48.144;14.118;2022-09-09T09:56:41;15.80;99.90
8332;DHT22;4203;48.144;14.118;2022-09-09T09:59:22;15.80;99.90
8332;DHT22;4203;48.144;14.118;2022-09-09T10:01:49;15.90;99.90
8332;DHT22;4203;48.144;14.118;2022-09-09T10:04:18;16.00;99.90
8332;DHT22;4203;48.144;14.118;2022-09-09T10:06:48;16.00;99.90
8332;DHT22;4203;48.144;14.118;2022-09-09T10:09:23;16.10;99.90
8332;DHT22;4203;48.144;14.118;2022-09-09T10:11:57;16.10;99.90
8332;DHT22;4203;48.144;14.118;2022-09-09T10:14:37;16.20;99.90
8332;DHT22;4203;48.144;14.118;2022-09-09T10:17:22;16.30;99.90
8332;DHT22;4203;48.144;14.118;2022-09-09T10:20:00;16.30;99.90
8332;DHT22;4203;48.144;14.118;2022-09-09T10:22:33;16.30;99.90
8332;DHT22;4203;48.144;14.118;2022-09-09T10:25:23;16.30;99.90
8332;DHT22;4203;48.144;14.118;2022-09-09T10:28:24;16.20;99.90
8332;DHT22;4203;48.144;14.118;2022-09-09T10:31:06;16.20;99.90
8332;DHT22;4203;48.144;14.118;2022-09-09T10:33:42;16.20;99.90
8332;DHT22;4203;48.144;14.118;2022-09-09T10:36:16;16.20;99.90
8332;DHT22;4203;48.144;14.118;2022-09-09T10:38:46;16.20;99.90
8332;DHT22;4203;48.144;14.118;2022-09-09T10:41:18;16.20;99.90
8332;DHT22;4203;48.144;14.118;2022-09-09T10:46:57;16.20;99.90
8332;DHT22;4203;48.144;14.118;2022-09-09T10:49:42;16.20;99.90
8332;DHT22;4203;48.144;14.118;2022-09-09T10:52:18;16.20;99.90
8332;DHT22;4203;48.144;14.118;2022-09-09T10:54:58;16.10;99.90
8332;DHT22;4203;48.144;14.118;2022-09-09T10:57:31;16.10;99.90
8332;DHT22;4203;48.144;14.118;2022-09-09T11:00:04;16.10;99.90
8332;DHT22;4203;48.144;14.118;2022-09-09T11:02:36;16.10;99.90
8332;DHT22;4203;48.144;14.118;2022-09-09T11:05:09;16.10;99.90
8332;DHT22;4203;48.144;14.118;2022-09-09T11:07:44;16.20;99.90
8332;DHT22;4203;48.144;14.118;2022-09-09T11:10:20;16.30;99.90
8332;DHT22;4203;48.144;14.118;2022-09-09T11:12:54;16.40;99.90
8332;DHT22;4203;48.144;14.118;2022-09-09T11:15:28;16.40;99.90
8332;DHT22;4203;48.144;14.118;2022-09-09T11:18:01;16.50;99.90
8332;DHT22;4203;48.144;14.118;2022-09-09T11:20:28;16.50;99.90
8332;DHT22;4203;48.144;14.118;2022-09-09T11:22:59;16.60;99.90
8332;DHT22;4203;48.144;14.118;2022-09-09T11:25:32;16.70;99.90
8332;DHT22;4203;48.144;14.118;2022-09-09T11:28:10;16.80;99.90
8332;DHT22;4203;48.144;14.118;2022-09-09T11:30:50;16.90;99.90
8332;DHT22;4203;48.144;14.118;2022-09-09T11:33:51;17.00;99.90
8332;DHT22;4203;48.144;14.118;2022-09-09T11:36:53;17.10;99.90
8332;DHT22;4203;48.144;14.118;2022-09-09T11:42:25;17.20;99.90
8332;DHT22;4203;48.144;14.118;2022-09-09T11:44:52;17.30;99.90
8332;DHT22;4203;48.144;14.118;2022-09-09T11:47:23;17.30;99.90
8332;DHT22;4203;48.144;14.118;2022-09-09T11:50:08;17.30;99.90
8332;DHT22;4203;48.144;14.118;2022-09-09T11:52:38;17.30;99.90
8332;DHT22;4203;48.144;14.118;2022-09-09T11:55:19;17.30;99.90
8332;DHT22;4203;48.144;14.118;2022-09-09T11:57:57;17.30;99.90
8332;DHT22;4203;48.144;14.118;2022-09-09T12:00:33;17.20;99.90
8332;DHT22;4203;48.144;14.118;2022-09-09T12:03:03;17.10;99.90
8332;DHT22;4203;48.144;14.118;2022-09-09T12:05:40;17.00;99.90
8332;DHT22;4203;48.144;14.118;2022-09-09T12:08:09;17.00;99.90
8332;DHT22;4203;48.144;14.118;2022-09-09T12:10:39;17.00;99.90
8332;DHT22;4203;48.144;14.118;2022-09-09T12:13:17;17.00;99.90
8332;DHT22;4203;48.144;14.118;2022-09-09T12:15:48;17.00;99.90
8332;DHT22;4203;48.144;14.118;2022-09-09T12:18:22;17.00;99.90
8332;DHT22;4203;48.144;14.118;2022-09-09T12:20:57;17.00;99.90
8332;DHT22;4203;48.144;14.118;2022-09-09T12:23:40;17.10;99.90
8332;DHT22;4203;48.144;14.118;2022-09-09T12:26:23;17.20;99.90
8332;DHT22;4203;48.144;14.118;2022-09-09T12:29:03;17.20;99.90
8332;DHT22;4203;48.144;14.118;2022-09-09T12:31:36;17.30;99.90
8332;DHT22;4203;48.144;14.118;2022-09-09T12:34:15;17.40;99.90
8332;DHT22;4203;48.144;14.118;2022-09-09T12:36:48;17.40;99.90
8332;DHT22;4203;48.144;14.118;2022-09-09T12:39:22;17.50;99.90
8332;DHT22;4203;48.144;14.118;2022-09-09T12:41:53;17.60;99.90
8332;DHT22;4203;48.144;14.118;2022-09-09T12:44:24;17.60;99.90
8332;DHT22;4203;48.144;14.118;2022-09-09T12:46:54;17.70;99.90
8332;DHT22;4203;48.144;14.118;2022-09-09T12:49:28;17.80;99.90
8332;DHT22;4203;48.144;14.118;2022-09-09T12:51:58;17.80;99.90
8332;DHT22;4203;48.144;14.118;2022-09-09T12:54:26;17.80;99.90
8332;DHT22;4203;48.144;14.118;2022-09-09T12:56:53;17.80;99.90
8332;DHT22;4203;48.144;14.118;2022-09-09T12:59:23;17.80;99.90
8332;DHT22;4203;48.144;14.118;2022-09-09T13:01:58;17.70;99.90
8332;DHT22;4203;48.144;14.118;2022-09-09T13:04:25;17.60;99.90
8332;DHT22;4203;48.144;14.118;2022-09-09T13:06:53;17.50;99.90
8332;DHT22;4203;48.144;14.118;2022-09-09T13:09:22;17.50;99.90
8332;DHT22;4203;48.144;14.118;2022-09-09T13:11:52;17.50;99.90
8332;DHT22;4203;48.144;14.118;2022-09-09T13:14:28;17.40;99.90
8332;DHT22;4203;48.144;14.118;2022-09-09T13:16:57;17.40;99.90
8332;DHT22;4203;48.144;14.118;2022-09-09T13:19:25;17.40;99.90
8332;DHT22;4203;48.144;14.118;2022-09-09T13:21:54;17.30;99.90
8332;DHT22;4203;48.144;14.118;2022-09-09T13:24:28;17.30;99.90
8332;DHT22;4203;48.144;14.118;2022-09-09T13:26:57;17.30;99.90
8332;DHT22;4203;48.144;14.118;2022-09-09T13:29:26;17.30;99.90
8332;DHT22;4203;48.144;14.118;2022-09-09T13:31:53;17.30;99.90
8332;DHT22;4203;48.144;14.118;2022-09-09T13:34:28;17.30;99.90
8332;DHT22;4203;48.144;14.118;2022-09-09T13:37:00;17.40;99.90
8332;DHT22;4203;48.144;14.118;2022-09-09T13:39:30;17.30;99.90
8332;DHT22;4203;48.144;14.118;2022-09-09T13:41:58;17.40;99.90
8332;DHT22;4203;48.144;14.118;2022-09-09T13:44:27;17.40;99.90
8332;DHT22;4203;48.144;14.118;2022-09-09T13:47:04;17.30;99.90
8332;DHT22;4203;48.144;14.118;2022-09-09T13:49:32;17.30;99.90
8332;DHT22;4203;48.144;14.118;2022-09-09T13:52:05;17.30;99.90
8332;DHT22;4203;48.144;14.118;2022-09-09T13:54:36;17.30;99.90
8332;DHT22;4203;48.144;14.118;2022-09-09T13:57:04;17.30;99.90
8332;DHT22;4203;48.144;14.118;2022-09-09T13:59:31;17.20;99.90
8332;DHT22;4203;48.144;14.118;2022-09-09T14:02:00;17.20;99.90
8332;DHT22;4203;48.144;14.118;2022-09-09T14:04:27;17.10;99.90
8332;DHT22;4203;48.144;14.118;2022-09-09T14:06:55;17.10;99.90
8332;DHT22;4203;48.144;14.118;2022-09-09T14:09:23;17.00;99.90
8332;DHT22;4203;48.144;14.118;2022-09-09T14:11:52;17.00;99.90
8332;DHT22;4203;48.144;14.118;2022-09-09T14:14:20;17.00;99.90
8332;DHT22;4203;48.144;14.118;2022-09-09T14:16:47;17.00;99.90
8332;DHT22;4203;48.144;14.118;2022-09-09T14:19:15;17.00;99.90
8332;DHT22;4203;48.144;14.118;2022-09-09T14:21:42;17.00;99.90
8332;DHT22;4203;48.144;14.118;2022-09-09T14:24:09;17.00;99.90
8332;DHT22;4203;48.144;14.118;2022-09-09T14:26:37;17.10;99.90
8332;DHT22;4203;48.144;14.118;2022-09-09T14:29:05;17.10;99.90
8332;DHT22;4203;48.144;14.118;2022-09-09T14:31:33;17.10;99.90
8332;DHT22;4203;48.144;14.118;2022-09-09T14:34:00;17.10;99.90
8332;DHT22;4203;48.144;14.118;2022-09-09T14:36:27;17.10;99.90
8332;DHT22;4203;48.144;14.118;2022-09-09T14:38:54;17.10;99.90
8332;DHT22;4203;48.144;14.118;2022-09-09T14:41:21;17.10;99.90
8332;DHT22;4203;48.144;14.118;2022-09-09T14:43:49;17.10;99.90
8332;DHT22;4203;48.144;14.118;2022-09-09T14:46:20;17.10;99.90
8332;DHT22;4203;48.144;14.118;2022-09-09T14:48:47;17.10;99.90
8332;DHT22;4203;48.144;14.118;2022-09-09T14:51:17;17.20;99.90
8332;DHT22;4203;48.144;14.118;2022-09-09T14:53:45;17.20;99.90
8332;DHT22;4203;48.144;14.118;2022-09-09T14:56:15;17.30;99.90
8332;DHT22;4203;48.144;14.118;2022-09-09T14:58:42;17.30;99.90
8332;DHT22;4203;48.144;14.118;2022-09-09T15:01:12;17.40;99.90
8332;DHT22;4203;48.144;14.118;2022-09-09T15:03:41;17.50;99.90
8332;DHT22;4203;48.144;14.118;2022-09-09T15:06:11;17.50;99.90
8332;DHT22;4203;48.144;14.118;2022-09-09T15:08:41;17.50;99.90
8332;DHT22;4203;48.144;14.118;2022-09-09T15:11:09;17.50;99.90
8332;DHT22;4203;48.144;14.118;2022-09-09T15:13:37;17.40;99.90
8332;DHT22;4203;48.144;14.118;2022-09-09T15:16:06;17.40;99.90
8332;DHT22;4203;48.144;14.118;2022-09-09T15:18:34;17.30;99.90
8332;DHT22;4203;48.144;14.118;2022-09-09T15:21:04;17.10;99.90
8332;DHT22;4203;48.144;14.118;2022-09-09T15:23:31;17.10;99.90
8332;DHT22;4203;48.144;14.118;2022-09-09T15:25:58;17.10;99.90
8332;DHT22;4203;48.144;14.118;2022-09-09T15:28:26;17.00;99.90
8332;DHT22;4203;48.144;14.118;2022-09-09T15:30:54;17.00;99.90
8332;DHT22;4203;48.144;14.118;2022-09-09T15:33:22;17.00;99.90
8332;DHT22;4203;48.144;14.118;2022-09-09T15:35:49;17.00;99.90
8332;DHT22;4203;48.144;14.118;2022-09-09T15:38:18;17.00;99.90
8332;DHT22;4203;48.144;14.118;2022-09-09T15:40:53;17.00;99.90
8332;DHT22;4203;48.144;14.118;2022-09-09T15:43:21;17.00;99.90
8332;DHT22;4203;48.144;14.118;2022-09-09T15:45:54;17.00;99.90
8332;DHT22;4203;48.144;14.118;2022-09-09T15:48:30;17.00;99.90
8332;DHT22;4203;48.144;14.118;2022-09-09T15:51:02;17.00;99.90
8332;DHT22;4203;48.144;14.118;2022-09-09T15:53:30;17.00;99.90
8332;DHT22;4203;48.144;14.118;2022-09-09T15:55:59;16.90;99.90
8332;DHT22;4203;48.144;14.118;2022-09-09T15:58:29;16.90;99.90
8332;DHT22;4203;48.144;14.118;2022-09-09T16:01:02;16.80;99.90
8332;DHT22;4203;48.144;14.118;2022-09-09T16:03:30;16.80;99.90
8332;DHT22;4203;48.144;14.118;2022-09-09T16:05:57;16.80;99.90
8332;DHT22;4203;48.144;14.118;2022-09-09T16:08:24;16.80;99.90
8332;DHT22;4203;48.144;14.118;2022-09-09T16:10:52;16.70;99.90
8332;DHT22;4203;48.144;14.118;2022-09-09T16:13:19;16.80;99.90
8332;DHT22;4203;48.144;14.118;2022-09-09T16:15:54;16.70;99.90